sensor_id;sensor_type;location;lat;lon;timestamp;temperature;humidity
21811;DHT22;11067;48.788;9.208;2023-03-24T00:02:03;14.50;99.90
21811;DHT22;11067;48.788;9.208;2023-03-24T00:04:29;14.50;99.90
21811;DHT22;11067;48.788;9.208;2023-03-24T00:06:55;14.40;99.90
21811;DHT22;11067;48.788;9.208;2023-03-24T00:09:20;14.30;99.90
21811;DHT22;11067;48.788;9.208;2023-03-24T00:11:46;14.20;99.90
21811;DHT22;11067;48.788;9.208;2023-03-24T00:14:11;14.10;99.90
21811;DHT22;11067;48.788;9.208;2023-03-24T00:16:38;14.10;99.90
21811;DHT22;11067;48.788;9.208;2023-03-24T00:19:07;14.20;99.90
21811;DHT22;11067;48.788;9.208;2023-03-24T00:21:33;14.30;99.90
21811;DHT22;11067;48.788;9.208;2023-03-24T00:23:59;14.40;99.90
21811;DHT22;11067;48.788;9.208;2023-03-24T00:26:26;14.50;99.90
21811;DHT22;11067;48.788;9.208;2023-03-24T00:28:53;14.40;99.90
21811;DHT22;11067;48.788;9.208;2023-03-24T00:31:19;14.40;99.90
21811;DHT22;11067;48.788;9.208;2023-03-24T00:33:46;14.40;99.90
21811;DHT22;11067;48.788;9.208;2023-03-24T00:36:16;14.30;99.90
21811;DHT22;11067;48.788;9.208;2023-03-24T00:38:42;14.20;99.90
21811;DHT22;11067;48.788;9.208;2023-03-24T00:41:08;14.20;99.90
21811;DHT22;11067;48.788;9.208;2023-03-24T00:43:37;14.30;99.90
21811;DHT22;11067;48.788;9.208;2023-03-24T00:46:05;14.30;99.90
21811;DHT22;11067;48.788;9.208;2023-03-24T00:48:32;14.30;99.90
21811;DHT22;11067;48.788;9.208;2023-03-24T00:51:00;14.20;99.90
21811;DHT22;11067;48.788;9.208;2023-03-24T00:53:27;14.20;99.90
21811;DHT22;11067;48.788;9.208;2023-03-24T00:55:57;14.30;99.90
21811;DHT22;11067;48.788;9.208;2023-03-24T00:58:23;14.40;99.90
21811;DHT22;11067;48.788;9.208;2023-03-24T01:00:51;14.40;99.90
21811;DHT22;11067;48.788;9.208;2023-03-24T01:03:18;14.40;99.90
21811;DHT22;11067;48.788;9.208;2023-03-24T01:05:47;14.30;99.90
21811;DHT22;11067;48.788;9.208;2023-03-24T01:08:16;14.30;99.90
21811;DHT22;11067;48.788;9.208;2023-03-24T01:10:47;14.20;99.90
21811;DHT22;11067;48.788;9.208;2023-03-24T01:13:19;14.20;99.90
21811;DHT22;11067;48.788;9.208;2023-03-24T01:15:45;14.10;99.90
21811;DHT22;11067;48.788;9.208;2023-03-24T01:18:11;14.00;99.90
21811;DHT22;11067;48.788;9.208;2023-03-24T01:20:41;14.10;99.90
21811;DHT22;11067;48.788;9.208;2023-03-24T01:23:10;14.10;99.90
21811;DHT22;11067;48.788;9.208;2023-03-24T01:25:36;14.00;99.90
21811;DHT22;11067;48.788;9.208;2023-03-24T01:28:02;14.00;99.90
21811;DHT22;11067;48.788;9.208;2023-03-24T01:30:29;13.90;99.90
21811;DHT22;11067;48.788;9.208;2023-03-24T01:32:55;13.70;99.90
21811;DHT22;11067;48.788;9.208;2023-03-24T01:35:23;13.60;99.90
21811;DHT22;11067;48.788;9.208;2023-03-24T01:37:50;13.70;99.90
21811;DHT22;11067;48.788;9.208;2023-03-24T01:40:23;13.70;99.90
21811;DHT22;11067;48.788;9.208;2023-03-24T01:42:49;13.70;99.90
21811;DHT22;11067;48.788;9.208;2023-03-24T01:48:12;13.80;99.90
21811;DHT22;11067;48.788;9.208;2023-03-24T01:50:39;13.90;99.90
21811;DHT22;11067;48.788;9.208;2023-03-24T01:53:06;13.90;99.90
21811;DHT22;11067;48.788;9.208;2023-03-24T01:55:33;13.90;99.90
21811;DHT22;11067;48.788;9.208;2023-03-24T01:58:00;13.80;99.90
21811;DHT22;11067;48.788;9.208;2023-03-24T02:00:27;13.80;99.90
21811;DHT22;11067;48.788;9.208;2023-03-24T02:02:56;13.70;99.90
21811;DHT22;11067;48.788;9.208;2023-03-24T02:05:26;13.70;99.90
21811;DHT22;11067;48.788;9.208;2023-03-24T02:10:36;14.00;99.90
21811;DHT22;11067;48.788;9.208;2023-03-24T02:13:03;13.90;99.90
21811;DHT22;11067;48.788;9.208;2023-03-24T02:15:30;13.90;99.90
21811;DHT22;11067;48.788;9.208;2023-03-24T02:18:15;13.90;99.90
21811;DHT22;11067;48.788;9.208;2023-03-24T02:26:11;13.90;99.90
21811;DHT22;11067;48.788;9.208;2023-03-24T02:31:29;14.20;99.90
21811;DHT22;11067;48.788;9.208;2023-03-24T02:40:06;14.20;99.90
21811;DHT22;11067;48.788;9.208;2023-03-24T02:45:39;14.20;99.90
21811;DHT22;11067;48.788;9.208;2023-03-24T02:50:49;14.30;99.90
21811;DHT22;11067;48.788;9.208;2023-03-24T02:53:20;14.10;99.90
21811;DHT22;11067;48.788;9.208;2023-03-24T02:56:04;14.10;99.90
21811;DHT22;11067;48.788;9.208;2023-03-24T02:58:40;14.00;99.90
21811;DHT22;11067;48.788;9.208;2023-03-24T03:01:13;14.10;99.90
21811;DHT22;11067;48.788;9.208;2023-03-24T03:03:45;14.20;99.90
21811;DHT22;11067;48.788;9.208;2023-03-24T03:06:30;14.60;99.90
21811;DHT22;11067;48.788;9.208;2023-03-24T03:09:00;14.70;99.90
21811;DHT22;11067;48.788;9.208;2023-03-24T03:11:27;14.90;99.90
21811;DHT22;11067;48.788;9.208;2023-03-24T03:13:59;15.10;99.90
21811;DHT22;11067;48.788;9.208;2023-03-24T03:16:43;15.30;99.90
21811;DHT22;11067;48.788;9.208;2023-03-24T03:19:24;15.30;99.90
21811;DHT22;11067;48.788;9.208;2023-03-24T03:21:55;15.30;99.90
21811;DHT22;11067;48.788;9.208;2023-03-24T03:24:32;15.30;99.90
21811;DHT22;11067;48.788;9.208;2023-03-24T03:27:04;15.30;99.90
21811;DHT22;11067;48.788;9.208;2023-03-24T03:29:36;15.40;99.90
21811;DHT22;11067;48.788;9.208;2023-03-24T03:32:05;15.40;99.90
21811;DHT22;11067;48.788;9.208;2023-03-24T03:34:51;15.40;99.90
21811;DHT22;11067;48.788;9.208;2023-03-24T03:39:58;15.20;99.90
21811;DHT22;11067;48.788;9.208;2023-03-24T03:42:24;15.20;99.90
21811;DHT22;11067;48.788;9.208;2023-03-24T03:44:50;15.10;99.90
21811;DHT22;11067;48.788;9.208;2023-03-24T03:47:16;15.00;99.90
21811;DHT22;11067;48.788;9.208;2023-03-24T03:49:44;15.10;99.90
21811;DHT22;11067;48.788;9.208;2023-03-24T03:52:10;15.00;99.90
21811;DHT22;11067;48.788;9.208;2023-03-24T03:54:37;15.00;99.90
21811;DHT22;11067;48.788;9.208;2023-03-24T03:57:03;14.90;99.90
21811;DHT22;11067;48.788;9.208;2023-03-24T03:59:31;14.90;99.90
21811;DHT22;11067;48.788;9.208;2023-03-24T04:05:15;14.80;99.90
21811;DHT22;11067;48.788;9.208;2023-03-24T04:08:06;14.70;99.90
21811;DHT22;11067;48.788;9.208;2023-03-24T04:19:36;14.70;99.90
21811;DHT22;11067;48.788;9.208;2023-03-24T04:21:59;14.80;99.90
21811;DHT22;11067;48.788;9.208;2023-03-24T04:27:30;14.90;99.90
21811;DHT22;11067;48.788;9.208;2023-03-24T04:30:22;15.00;99.90
21811;DHT22;11067;48.788;9.208;2023-03-24T04:33:04;15.10;99.90
21811;DHT22;11067;48.788;9.208;2023-03-24T04:35:36;14.90;99.90
21811;DHT22;11067;48.788;9.208;2023-03-24T04:38:11;14.90;99.90
21811;DHT22;11067;48.788;9.208;2023-03-24T04:40:43;14.90;99.90
21811;DHT22;11067;48.788;9.208;2023-03-24T04:43:13;14.70;99.90
21811;DHT22;11067;48.788;9.208;2023-03-24T04:45:42;14.80;99.90
21811;DHT22;11067;48.788;9.208;2023-03-24T04:48:14;14.80;99.90
21811;DHT22;11067;48.788;9.208;2023-03-24T04:50:47;15.00;99.90
21811;DHT22;11067;48.788;9.208;2023-03-24T04:53:13;15.10;99.90
21811;DHT22;11067;48.788;9.208;2023-03-24T04:58:14;15.30;99.90
21811;DHT22;11067;48.788;9.208;2023-03-24T05:00:40;15.30;99.90
21811;DHT22;11067;48.788;9.208;2023-03-24T05:03:05;15.40;99.90
21811;DHT22;11067;48.788;9.208;2023-03-24T05:05:31;15.40;99.90
21811;DHT22;11067;48.788;9.208;2023-03-24T05:07:57;15.50;99.90
21811;DHT22;11067;48.788;9.208;2023-03-24T05:10:23;15.50;99.90
21811;DHT22;11067;48.788;9.208;2023-03-24T05:12:49;15.50;99.90
21811;DHT22;11067;48.788;9.208;2023-03-24T05:15:15;15.50;99.90
21811;DHT22;11067;48.788;9.208;2023-03-24T05:17:40;15.50;99.90
21811;DHT22;11067;48.788;9.208;2023-03-24T05:20:06;15.40;99.90
21811;DHT22;11067;48.788;9.208;2023-03-24T05:22:36;15.50;99.90
21811;DHT22;11067;48.788;9.208;2023-03-24T05:25:02;15.50;99.90
21811;DHT22;11067;48.788;9.208;2023-03-24T05:27:27;15.50;99.90
21811;DHT22;11067;48.788;9.208;2023-03-24T05:29:53;15.60;99.90
21811;DHT22;11067;48.788;9.208;2023-03-24T05:32:18;15.60;99.90
21811;DHT22;11067;48.788;9.208;2023-03-24T05:34:44;15.50;99.90
21811;DHT22;11067;48.788;9.208;2023-03-24T05:37:09;15.40;99.90
21811;DHT22;11067;48.788;9.208;2023-03-24T05:39:37;15.20;99.90
21811;DHT22;11067;48.788;9.208;2023-03-24T05:42:03;15.20;99.90
21811;DHT22;11067;48.788;9.208;2023-03-24T05:44:28;15.00;99.90
21811;DHT22;11067;48.788;9.208;2023-03-24T05:46:54;14.80;99.90
21811;DHT22;11067;48.788;9.208;2023-03-24T05:49:20;14.70;99.90
21811;DHT22;11067;48.788;9.208;2023-03-24T05:51:45;14.50;99.90
21811;DHT22;11067;48.788;9.208;2023-03-24T05:54:11;14.50;99.90
21811;DHT22;11067;48.788;9.208;2023-03-24T05:56:36;14.50;99.90
21811;DHT22;11067;48.788;9.208;2023-03-24T05:59:02;14.40;99.90
21811;DHT22;11067;48.788;9.208;2023-03-24T06:01:28;14.40;99.90
21811;DHT22;11067;48.788;9.208;2023-03-24T06:03:54;14.30;99.90
21811;DHT22;11067;48.788;9.208;2023-03-24T06:06:20;14.30;99.90
21811;DHT22;11067;48.788;9.208;2023-03-24T06:08:47;14.20;99.90
21811;DHT22;11067;48.788;9.208;2023-03-24T06:11:13;14.10;99.90
21811;DHT22;11067;48.788;9.208;2023-03-24T06:13:39;14.20;99.90
21811;DHT22;11067;48.788;9.208;2023-03-24T06:16:05;14.10;99.90
21811;DHT22;11067;48.788;9.208;2023-03-24T06:18:32;14.10;99.90
21811;DHT22;11067;48.788;9.208;2023-03-24T06:20:58;14.10;99.90
21811;DHT22;11067;48.788;9.208;2023-03-24T06:23:26;14.00;99.90
21811;DHT22;11067;48.788;9.208;2023-03-24T06:25:53;14.00;99.90
21811;DHT22;11067;48.788;9.208;2023-03-24T06:28:21;14.00;99.90
21811;DHT22;11067;48.788;9.208;2023-03-24T06:30:47;13.90;99.90
21811;DHT22;11067;48.788;9.208;2023-03-24T06:33:13;13.90;99.90
21811;DHT22;11067;48.788;9.208;2023-03-24T06:35:39;13.90;99.90
21811;DHT22;11067;48.788;9.208;2023-03-24T06:38:05;13.90;99.90
21811;DHT22;11067;48.788;9.208;2023-03-24T06:40:32;14.00;99.90
21811;DHT22;11067;48.788;9.208;2023-03-24T06:42:58;14.00;99.90
21811;DHT22;11067;48.788;9.208;2023-03-24T06:45:24;14.00;99.90
21811;DHT22;11067;48.788;9.208;2023-03-24T06:47:53;13.90;99.90
21811;DHT22;11067;48.788;9.208;2023-03-24T06:50:23;13.90;99.90
21811;DHT22;11067;48.788;9.208;2023-03-24T06:52:51;13.80;99.90
21811;DHT22;11067;48.788;9.208;2023-03-24T06:55:17;13.90;99.90
21811;DHT22;11067;48.788;9.208;2023-03-24T06:57:43;13.90;99.90
21811;DHT22;11067;48.788;9.208;2023-03-24T07:00:09;13.90;99.90
21811;DHT22;11067;48.788;9.208;2023-03-24T07:02:35;14.00;99.90
21811;DHT22;11067;48.788;9.208;2023-03-24T07:05:02;13.90;99.90
21811;DHT22;11067;48.788;9.208;2023-03-24T07:07:33;14.00;99.90
21811;DHT22;11067;48.788;9.208;2023-03-24T07:10:00;14.00;99.90
21811;DHT22;11067;48.788;9.208;2023-03-24T07:12:26;14.10;99.90
21811;DHT22;11067;48.788;9.208;2023-03-24T07:14:51;14.10;99.90
21811;DHT22;11067;48.788;9.208;2023-03-24T07:17:17;14.10;99.90
21811;DHT22;11067;48.788;9.208;2023-03-24T07:19:43;14.10;99.90
21811;DHT22;11067;48.788;9.208;2023-03-24T07:22:10;14.20;99.90
21811;DHT22;11067;48.788;9.208;2023-03-24T07:24:36;14.20;99.90
21811;DHT22;11067;48.788;9.208;2023-03-24T07:27:02;14.10;99.90
21811;DHT22;11067;48.788;9.208;2023-03-24T07:29:27;13.90;99.90
21811;DHT22;11067;48.788;9.208;2023-03-24T07:31:53;13.90;99.90
21811;DHT22;11067;48.788;9.208;2023-03-24T07:34:23;13.90;99.90
21811;DHT22;11067;48.788;9.208;2023-03-24T07:36:49;13.70;99.90
21811;DHT22;11067;48.788;9.208;2023-03-24T07:39:14;13.70;99.90
21811;DHT22;11067;48.788;9.208;2023-03-24T07:41:40;13.60;99.90
21811;DHT22;11067;48.788;9.208;2023-03-24T07:44:06;13.60;99.90
21811;DHT22;11067;48.788;9.208;2023-03-24T07:46:32;13.60;99.90
21811;DHT22;11067;48.788;9.208;2023-03-24T07:48:57;13.60;99.90
21811;DHT22;11067;48.788;9.208;2023-03-24T07:51:23;13.50;99.90
21811;DHT22;11067;48.788;9.208;2023-03-24T07:53:48;13.50;99.90
21811;DHT22;11067;48.788;9.208;2023-03-24T07:56:14;13.50;99.90
21811;DHT22;11067;48.788;9.208;2023-03-24T07:58:40;13.40;99.90
21811;DHT22;11067;48.788;9.208;2023-03-24T08:01:06;13.40;99.90
21811;DHT22;11067;48.788;9.208;2023-03-24T08:03:35;13.40;99.90
21811;DHT22;11067;48.788;9.208;2023-03-24T08:06:01;13.40;99.90
21811;DHT22;11067;48.788;9.208;2023-03-24T08:08:26;13.40;99.90
21811;DHT22;11067;48.788;9.208;2023-03-24T08:10:52;13.50;99.90
21811;DHT22;11067;48.788;9.208;2023-03-24T08:13:18;13.50;99.90
21811;DHT22;11067;48.788;9.208;2023-03-24T08:15:43;13.50;99.90
21811;DHT22;11067;48.788;9.208;2023-03-24T08:18:09;13.50;99.90
21811;DHT22;11067;48.788;9.208;2023-03-24T08:20:35;13.50;99.90
21811;DHT22;11067;48.788;9.208;2023-03-24T08:23:01;13.60;99.90
21811;DHT22;11067;48.788;9.208;2023-03-24T08:25:29;13.50;99.90
21811;DHT22;11067;48.788;9.208;2023-03-24T08:27:54;13.60;99.90
21811;DHT22;11067;48.788;9.208;2023-03-24T08:30:23;13.60;99.90
21811;DHT22;11067;48.788;9.208;2023-03-24T08:32:53;13.60;99.90
21811;DHT22;11067;48.788;9.208;2023-03-24T08:35:23;13.50;99.90
21811;DHT22;11067;48.788;9.208;2023-03-24T08:37:49;13.60;99.90
21811;DHT22;11067;48.788;9.208;2023-03-24T08:40:17;13.60;99.90
21811;DHT22;11067;48.788;9.208;2023-03-24T08:42:47;13.50;99.90
21811;DHT22;11067;48.788;9.208;2023-03-24T08:45:13;13.50;99.90
21811;DHT22;11067;48.788;9.208;2023-03-24T08:47:39;13.40;99.90
21811;DHT22;11067;48.788;9.208;2023-03-24T08:50:06;13.50;99.90
21811;DHT22;11067;48.788;9.208;2023-03-24T08:52:32;13.50;99.90
21811;DHT22;11067;48.788;9.208;2023-03-24T08:54:58;13.60;99.90
21811;DHT22;11067;48.788;9.208;2023-03-24T08:57:23;13.80;99.90
21811;DHT22;11067;48.788;9.208;2023-03-24T08:59:49;13.80;99.90
21811;DHT22;11067;48.788;9.208;2023-03-24T09:02:15;13.90;99.90
21811;DHT22;11067;48.788;9.208;2023-03-24T09:04:40;14.00;99.90
21811;DHT22;11067;48.788;9.208;2023-03-24T09:07:10;14.20;99.90
21811;DHT22;11067;48.788;9.208;2023-03-24T09:09:36;14.30;99.90
21811;DHT22;11067;48.788;9.208;2023-03-24T09:12:01;14.40;99.90
21811;DHT22;11067;48.788;9.208;2023-03-24T09:14:27;14.50;99.90
21811;DHT22;11067;48.788;9.208;2023-03-24T09:16:52;14.60;99.90
21811;DHT22;11067;48.788;9.208;2023-03-24T09:19:18;14.60;99.90
21811;DHT22;11067;48.788;9.208;2023-03-24T09:21:45;14.70;99.90
21811;DHT22;11067;48.788;9.208;2023-03-24T09:24:12;14.70;99.90
21811;DHT22;11067;48.788;9.208;2023-03-24T09:26:38;14.70;99.90
21811;DHT22;11067;48.788;9.208;2023-03-24T09:29:04;14.60;99.90
21811;DHT22;11067;48.788;9.208;2023-03-24T09:31:30;14.60;99.90
21811;DHT22;11067;48.788;9.208;2023-03-24T09:33:55;14.80;99.90
21811;DHT22;11067;48.788;9.208;2023-03-24T09:36:21;14.90;99.90
21811;DHT22;11067;48.788;9.208;2023-03-24T09:38:47;15.10;99.90
21811;DHT22;11067;48.788;9.208;2023-03-24T09:41:32;15.10;99.90
21811;DHT22;11067;48.788;9.208;2023-03-24T09:46:56;15.20;99.90
21811;DHT22;11067;48.788;9.208;2023-03-24T09:49:28;15.50;99.90
21811;DHT22;11067;48.788;9.208;2023-03-24T09:52:09;15.70;99.90
21811;DHT22;11067;48.788;9.208;2023-03-24T09:54:48;15.50;99.90
21811;DHT22;11067;48.788;9.208;2023-03-24T09:57:21;15.80;99.90
21811;DHT22;11067;48.788;9.208;2023-03-24T09:59:48;15.60;99.90
21811;DHT22;11067;48.788;9.208;2023-03-24T10:02:18;15.60;99.90
21811;DHT22;11067;48.788;9.208;2023-03-24T10:04:44;15.70;99.90
21811;DHT22;11067;48.788;9.208;2023-03-24T10:07:21;15.80;99.90
21811;DHT22;11067;48.788;9.208;2023-03-24T10:09:54;16.10;99.90
21811;DHT22;11067;48.788;9.208;2023-03-24T10:12:46;16.10;99.90
21811;DHT22;11067;48.788;9.208;2023-03-24T10:17:50;17.00;99.90
21811;DHT22;11067;48.788;9.208;2023-03-24T10:20:38;17.20;99.90
21811;DHT22;11067;48.788;9.208;2023-03-24T10:23:19;17.10;99.90
21811;DHT22;11067;48.788;9.208;2023-03-24T10:31:15;17.10;99.90
21811;DHT22;11067;48.788;9.208;2023-03-24T10:33:43;17.10;99.90
21811;DHT22;11067;48.788;9.208;2023-03-24T10:36:14;17.20;99.90
21811;DHT22;11067;48.788;9.208;2023-03-24T10:38:42;17.00;99.90
21811;DHT22;11067;48.788;9.208;2023-03-24T10:41:21;17.00;99.90
21811;DHT22;11067;48.788;9.208;2023-03-24T10:43:51;17.00;99.90
21811;DHT22;11067;48.788;9.208;2023-03-24T10:46:21;17.00;99.90
21811;DHT22;11067;48.788;9.208;2023-03-24T10:48:49;16.90;99.90
21811;DHT22;11067;48.788;9.208;2023-03-24T10:51:23;17.00;99.90
21811;DHT22;11067;48.788;9.208;2023-03-24T10:53:51;17.10;99.90
21811;DHT22;11067;48.788;9.208;2023-03-24T10:56:48;17.10;99.90
21811;DHT22;11067;48.788;9.208;2023-03-24T10:59:38;17.40;99.90
21811;DHT22;11067;48.788;9.208;2023-03-24T11:02:29;17.50;99.90
21811;DHT22;11067;48.788;9.208;2023-03-24T11:05:14;17.50;99.90
21811;DHT22;11067;48.788;9.208;2023-03-24T11:07:44;17.10;99.90
21811;DHT22;11067;48.788;9.208;2023-03-24T11:12:58;17.00;99.90
21811;DHT22;11067;48.788;9.208;2023-03-24T11:15:31;17.00;99.90
21811;DHT22;11067;48.788;9.208;2023-03-24T11:18:06;17.10;99.90
21811;DHT22;11067;48.788;9.208;2023-03-24T11:20:35;17.40;99.90
21811;DHT22;11067;48.788;9.208;2023-03-24T11:23:05;17.30;99.90
21811;DHT22;11067;48.788;9.208;2023-03-24T11:25:34;17.40;99.90
21811;DHT22;11067;48.788;9.208;2023-03-24T11:28:23;17.20;99.90
21811;DHT22;11067;48.788;9.208;2023-03-24T11:30:52;17.20;99.90
21811;DHT22;11067;48.788;9.208;2023-03-24T11:33:22;17.00;99.90
21811;DHT22;11067;48.788;9.208;2023-03-24T11:35:51;17.00;99.90
21811;DHT22;11067;48.788;9.208;2023-03-24T11:38:19;17.00;99.90
21811;DHT22;11067;48.788;9.208;2023-03-24T11:41:02;17.40;99.90
21811;DHT22;11067;48.788;9.208;2023-03-24T11:43:31;17.50;99.90
21811;DHT22;11067;48.788;9.208;2023-03-24T11:46:12;17.50;99.90
21811;DHT22;11067;48.788;9.208;2023-03-24T11:48:52;17.60;99.90
21811;DHT22;11067;48.788;9.208;2023-03-24T11:51:31;17.50;99.90
21811;DHT22;11067;48.788;9.208;2023-03-24T11:54:02;17.60;99.90
21811;DHT22;11067;48.788;9.208;2023-03-24T11:56:40;17.40;99.90
21811;DHT22;11067;48.788;9.208;2023-03-24T12:07:48;17.00;99.90
21811;DHT22;11067;48.788;9.208;2023-03-24T12:10:23;17.00;99.90
21811;DHT22;11067;48.788;9.208;2023-03-24T12:13:09;17.10;99.90
21811;DHT22;11067;48.788;9.208;2023-03-24T12:15:48;17.30;99.90
21811;DHT22;11067;48.788;9.208;2023-03-24T12:21:06;17.20;99.90
21811;DHT22;11067;48.788;9.208;2023-03-24T12:26:24;17.20;99.90
21811;DHT22;11067;48.788;9.208;2023-03-24T12:31:49;16.90;99.90
21811;DHT22;11067;48.788;9.208;2023-03-24T12:42:42;17.20;99.90
21811;DHT22;11067;48.788;9.208;2023-03-24T12:54:14;16.80;99.90
21811;DHT22;11067;48.788;9.208;2023-03-24T12:57:04;16.80;99.90
21811;DHT22;11067;48.788;9.208;2023-03-24T12:59:42;16.60;99.90
21811;DHT22;11067;48.788;9.208;2023-03-24T13:02:17;16.60;99.90
21811;DHT22;11067;48.788;9.208;2023-03-24T13:04:45;16.50;99.90
21811;DHT22;11067;48.788;9.208;2023-03-24T13:07:17;16.50;99.90
21811;DHT22;11067;48.788;9.208;2023-03-24T13:09:51;16.60;99.90
21811;DHT22;11067;48.788;9.208;2023-03-24T13:12:43;16.50;99.90
21811;DHT22;11067;48.788;9.208;2023-03-24T13:15:16;16.60;99.90
21811;DHT22;11067;48.788;9.208;2023-03-24T13:20:50;16.70;99.90
21811;DHT22;11067;48.788;9.208;2023-03-24T13:25:53;16.80;99.90
21811;DHT22;11067;48.788;9.208;2023-03-24T13:28:26;16.40;99.90
21811;DHT22;11067;48.788;9.208;2023-03-24T13:30:54;16.20;99.90
21811;DHT22;11067;48.788;9.208;2023-03-24T13:33:23;16.10;99.90
21811;DHT22;11067;48.788;9.208;2023-03-24T13:38:58;16.00;99.90
21811;DHT22;11067;48.788;9.208;2023-03-24T13:41:25;16.00;99.90
21811;DHT22;11067;48.788;9.208;2023-03-24T13:44:02;15.90;99.90
21811;DHT22;11067;48.788;9.208;2023-03-24T13:46:30;16.10;99.90
21811;DHT22;11067;48.788;9.208;2023-03-24T13:48:57;16.00;99.90
21811;DHT22;11067;48.788;9.208;2023-03-24T13:51:34;16.00;99.90
21811;DHT22;11067;48.788;9.208;2023-03-24T13:54:20;15.90;99.90
21811;DHT22;11067;48.788;9.208;2023-03-24T13:56:52;16.00;99.90
21811;DHT22;11067;48.788;9.208;2023-03-24T13:59:41;15.90;99.90
21811;DHT22;11067;48.788;9.208;2023-03-24T14:02:49;15.90;99.90
21811;DHT22;11067;48.788;9.208;2023-03-24T14:07:49;15.70;99.90
21811;DHT22;11067;48.788;9.208;2023-03-24T14:12:56;14.70;99.90
21811;DHT22;11067;48.788;9.208;2023-03-24T14:15:26;14.60;99.90
21811;DHT22;11067;48.788;9.208;2023-03-24T14:20:41;14.00;99.90
21811;DHT22;11067;48.788;9.208;2023-03-24T14:23:22;13.60;99.90
21811;DHT22;11067;48.788;9.208;2023-03-24T14:25:55;13.30;99.90
21811;DHT22;11067;48.788;9.208;2023-03-24T14:28:39;13.20;99.90
21811;DHT22;11067;48.788;9.208;2023-03-24T14:34:07;13.10;99.90
21811;DHT22;11067;48.788;9.208;2023-03-24T14:36:42;12.90;99.90
21811;DHT22;11067;48.788;9.208;2023-03-24T14:41:50;12.70;99.90
21811;DHT22;11067;48.788;9.208;2023-03-24T14:47:29;12.60;99.90
21811;DHT22;11067;48.788;9.208;2023-03-24T14:49:57;12.60;99.90
21811;DHT22;11067;48.788;9.208;2023-03-24T14:52:33;12.40;99.90
21811;DHT22;11067;48.788;9.208;2023-03-24T14:55:10;12.50;99.90
21811;DHT22;11067;48.788;9.208;2023-03-24T14:57:38;12.30;99.90
21811;DHT22;11067;48.788;9.208;2023-03-24T15:00:24;12.40;99.90
21811;DHT22;11067;48.788;9.208;2023-03-24T15:02:55;12.30;99.90
21811;DHT22;11067;48.788;9.208;2023-03-24T15:10:35;12.20;99.90
21811;DHT22;11067;48.788;9.208;2023-03-24T15:13:02;12.30;99.90
21811;DHT22;11067;48.788;9.208;2023-03-24T15:15:28;12.30;99.90
21811;DHT22;11067;48.788;9.208;2023-03-24T15:17:53;12.20;99.90
21811;DHT22;11067;48.788;9.208;2023-03-24T15:20:32;12.40;99.90
21811;DHT22;11067;48.788;9.208;2023-03-24T15:23:05;12.20;99.90
21811;DHT22;11067;48.788;9.208;2023-03-24T15:25:31;12.20;99.90
21811;DHT22;11067;48.788;9.208;2023-03-24T15:27:57;12.10;99.90
21811;DHT22;11067;48.788;9.208;2023-03-24T15:30:23;12.10;99.90
21811;DHT22;11067;48.788;9.208;2023-03-24T15:32:49;12.10;99.90
21811;DHT22;11067;48.788;9.208;2023-03-24T15:35:19;12.10;99.90
21811;DHT22;11067;48.788;9.208;2023-03-24T15:37:50;12.20;99.90
21811;DHT22;11067;48.788;9.208;2023-03-24T15:42:53;12.30;99.90
21811;DHT22;11067;48.788;9.208;2023-03-24T15:45:36;12.40;99.90
21811;DHT22;11067;48.788;9.208;2023-03-24T15:48:15;12.60;99.90
21811;DHT22;11067;48.788;9.208;2023-03-24T15:50:54;12.50;99.90
21811;DHT22;11067;48.788;9.208;2023-03-24T15:53:24;12.60;99.90
21811;DHT22;11067;48.788;9.208;2023-03-24T15:56:26;12.60;99.90
21811;DHT22;11067;48.788;9.208;2023-03-24T16:01:34;12.60;99.90
21811;DHT22;11067;48.788;9.208;2023-03-24T16:04:07;12.70;99.90
21811;DHT22;11067;48.788;9.208;2023-03-24T16:06:36;12.90;99.90
21811;DHT22;11067;48.788;9.208;2023-03-24T16:09:07;12.90;99.90
21811;DHT22;11067;48.788;9.208;2023-03-24T16:11:35;12.90;99.90
21811;DHT22;11067;48.788;9.208;2023-03-24T16:14:01;12.80;99.90
21811;DHT22;11067;48.788;9.208;2023-03-24T16:16:37;12.90;99.90
21811;DHT22;11067;48.788;9.208;2023-03-24T16:19:02;12.90;99.90
21811;DHT22;11067;48.788;9.208;2023-03-24T16:21:29;12.90;99.90
21811;DHT22;11067;48.788;9.208;2023-03-24T16:23:56;12.80;99.90
21811;DHT22;11067;48.788;9.208;2023-03-24T16:26:27;12.90;99.90
21811;DHT22;11067;48.788;9.208;2023-03-24T16:28:54;12.90;99.90
21811;DHT22;11067;48.788;9.208;2023-03-24T16:33:52;12.80;99.90
21811;DHT22;11067;48.788;9.208;2023-03-24T16:36:18;12.80;99.90
21811;DHT22;11067;48.788;9.208;2023-03-24T16:38:47;12.90;99.90
21811;DHT22;11067;48.788;9.208;2023-03-24T16:41:14;12.90;99.90
21811;DHT22;11067;48.788;9.208;2023-03-24T16:43:41;13.00;99.90
21811;DHT22;11067;48.788;9.208;2023-03-24T16:48:50;13.20;99.90
21811;DHT22;11067;48.788;9.208;2023-03-24T16:51:16;13.30;99.90
21811;DHT22;11067;48.788;9.208;2023-03-24T16:53:43;13.30;99.90
21811;DHT22;11067;48.788;9.208;2023-03-24T16:56:12;13.20;99.90
21811;DHT22;11067;48.788;9.208;2023-03-24T16:58:38;13.30;99.90
21811;DHT22;11067;48.788;9.208;2023-03-24T17:01:17;13.30;99.90
21811;DHT22;11067;48.788;9.208;2023-03-24T17:04:04;13.30;99.90
21811;DHT22;11067;48.788;9.208;2023-03-24T17:06:35;13.20;99.90
21811;DHT22;11067;48.788;9.208;2023-03-24T17:09:00;13.10;99.90
21811;DHT22;11067;48.788;9.208;2023-03-24T17:11:31;13.00;99.90
21811;DHT22;11067;48.788;9.208;2023-03-24T17:13:58;13.00;99.90
21811;DHT22;11067;48.788;9.208;2023-03-24T17:16:31;12.90;99.90
21811;DHT22;11067;48.788;9.208;2023-03-24T17:19:03;12.80;99.90
21811;DHT22;11067;48.788;9.208;2023-03-24T17:21:31;12.80;99.90
21811;DHT22;11067;48.788;9.208;2023-03-24T17:23:58;12.70;99.90
21811;DHT22;11067;48.788;9.208;2023-03-24T17:26:23;12.70;99.90
21811;DHT22;11067;48.788;9.208;2023-03-24T17:28:49;12.60;99.90
21811;DHT22;11067;48.788;9.208;2023-03-24T17:31:15;12.60;99.90
21811;DHT22;11067;48.788;9.208;2023-03-24T17:33:40;12.60;99.90
21811;DHT22;11067;48.788;9.208;2023-03-24T17:36:09;12.50;99.90
21811;DHT22;11067;48.788;9.208;2023-03-24T17:38:36;12.40;99.90
21811;DHT22;11067;48.788;9.208;2023-03-24T17:41:03;12.30;99.90
21811;DHT22;11067;48.788;9.208;2023-03-24T17:43:29;12.30;99.90
21811;DHT22;11067;48.788;9.208;2023-03-24T17:45:59;12.20;99.90
21811;DHT22;11067;48.788;9.208;2023-03-24T17:48:26;12.20;99.90
21811;DHT22;11067;48.788;9.208;2023-03-24T17:50:51;12.20;99.90
21811;DHT22;11067;48.788;9.208;2023-03-24T17:53:17;12.10;99.90
21811;DHT22;11067;48.788;9.208;2023-03-24T17:55:51;12.10;99.90
21811;DHT22;11067;48.788;9.208;2023-03-24T17:58:17;12.00;99.90
21811;DHT22;11067;48.788;9.208;2023-03-24T18:00:43;11.90;99.90
21811;DHT22;11067;48.788;9.208;2023-03-24T18:03:09;11.80;99.90